Time;durP1;ratioP1;P1;durP2;ratioP2;P2;SDS_P1;SDS_P2;PMS_P1;PMS_P2;Temp;Humidity;BMP_temperature;BMP_pressure;BME280_temperature;BME280_humidity;BME280_pressure;Samples;Min_cycle;Max_cycle;Signal;HPM_P1;HPM_P2
2023/03/22 00:00:41;;;;;;;;;7.00;5.33;;;;;16.83;100.00;100990.94;4979923;28;47444;-73
2023/03/22 00:03:09;;;;;;;;;2.33;2.33;;;;;16.80;100.00;101010.53;4964494;28;51367;-73
2023/03/22 00:05:34;;;;;;;;;2.67;2.67;;;;;16.83;100.00;101004.69;4965199;28;45336;-73
2023/03/22 00:08:00;;;;;;;;;5.00;2.67;;;;;16.74;100.00;101001.13;4964758;28;45639;-74
2023/03/22 00:10:27;;;;;;;;;4.33;4.00;;;;;16.50;100.00;101008.66;4964949;28;45475;-74
2023/03/22 00:12:53;;;;;;;;;4.33;4.00;;;;;16.54;100.00;100990.78;4964569;28;45468;-73
2023/03/22 00:15:18;;;;;;;;;4.67;4.67;;;;;16.52;100.00;100990.09;4964955;28;45339;-73
2023/03/22 00:17:44;;;;;;;;;5.33;4.33;;;;;16.55;100.00;100976.03;4964887;28;45369;-73
2023/03/22 00:20:10;;;;;;;;;3.33;3.33;;;;;16.53;100.00;100980.84;4964643;28;45585;-73
2023/03/22 00:22:37;;;;;;;;;4.00;4.00;;;;;16.46;100.00;100985.34;4964772;28;45482;-73
2023/03/22 00:25:03;;;;;;;;;7.00;5.33;;;;;16.47;100.00;100976.09;4964622;28;45468;-74
2023/03/22 00:27:29;;;;;;;;;7.00;4.33;;;;;16.47;100.00;100967.84;4963670;28;45539;-74
2023/03/22 00:29:54;;;;;;;;;4.00;3.00;;;;;16.47;100.00;100976.09;4964255;28;46583;-73
2023/03/22 00:32:19;;;;;;;;;6.00;4.33;;;;;16.39;100.00;100957.78;4963754;28;53726;-73
2023/03/22 00:34:45;;;;;;;;;9.00;5.33;;;;;16.40;100.00;100958.66;4963299;28;45435;-73
2023/03/22 00:37:10;;;;;;;;;8.33;7.00;;;;;16.31;100.00;100961.44;4964847;28;45494;-73
2023/03/22 00:39:35;;;;;;;;;4.33;4.33;;;;;16.23;100.00;100961.47;4964370;28;45357;-73
2023/03/22 00:42:03;;;;;;;;;4.67;4.67;;;;;16.23;100.00;100958.75;4964523;28;45355;-73
2023/03/22 00:44:29;;;;;;;;;5.00;4.00;;;;;16.09;100.00;100943.06;4964743;28;45451;-74
2023/03/22 00:46:54;;;;;;;;;6.00;4.00;;;;;16.23;100.00;100946.91;4996096;28;45280;-73
2023/03/22 00:49:20;;;;;;;;;4.67;4.00;;;;;16.09;100.00;100944.94;4963015;28;47026;-73
2023/03/22 00:51:46;;;;;;;;;7.00;4.00;;;;;16.22;100.00;100943.31;4964294;28;45481;-73
2023/03/22 00:54:11;;;;;;;;;4.00;4.00;;;;;16.23;100.00;100945.03;4963028;28;45397;-74
2023/03/22 00:56:37;;;;;;;;;4.00;3.33;;;;;16.21;100.00;100932.56;4964612;28;45303;-73
2023/03/22 00:59:03;;;;;;;;;4.00;3.67;;;;;16.17;100.00;100937.53;4963225;28;46806;-73
2023/03/22 01:01:28;;;;;;;;;3.67;2.00;;;;;16.19;100.00;100929.13;4964097;28;45399;-73
2023/03/22 01:03:53;;;;;;;;;4.33;4.00;;;;;16.14;100.00;100934.31;4964058;28;45620;-73
2023/03/22 01:06:19;;;;;;;;;3.00;3.00;;;;;15.89;100.00;100920.72;4964498;28;45416;-73
2023/03/22 01:08:44;;;;;;;;;4.33;3.00;;;;;15.98;100.00;100921.53;4964143;28;45344;-73
2023/03/22 01:11:09;;;;;;;;;4.00;3.00;;;;;15.89;100.00;100928.94;4964063;28;45163;-73
2023/03/22 01:13:36;;;;;;;;;3.00;3.00;;;;;15.97;100.00;100939.00;4964234;28;45310;-73
2023/03/22 01:16:02;;;;;;;;;2.67;2.67;;;;;15.79;100.00;100930.19;4964361;28;45617;-73
2023/03/22 01:18:28;;;;;;;;;6.00;2.00;;;;;15.79;100.00;100928.28;4962183;28;46294;-73
2023/03/22 01:20:53;;;;;;;;;4.00;2.33;;;;;15.94;100.00;100926.50;4965692;28;45428;-73
2023/03/22 01:23:18;;;;;;;;;5.00;4.33;;;;;15.82;100.00;100913.41;4967791;28;45758;-73
2023/03/22 01:25:44;;;;;;;;;2.67;2.00;;;;;15.81;100.00;100889.78;4966080;28;45456;-73
2023/03/22 01:28:09;;;;;;;;;2.33;2.00;;;;;15.91;100.00;100898.63;4967736;28;45338;-74
2023/03/22 01:30:34;;;;;;;;;2.00;2.00;;;;;15.84;100.00;100897.66;4967442;28;45451;-73
2023/03/22 01:33:00;;;;;;;;;2.33;2.33;;;;;15.75;100.00;100885.00;4965596;28;45380;-73
2023/03/22 01:35:25;;;;;;;;;4.67;3.00;;;;;15.85;100.00;100893.88;4967640;28;45313;-73
2023/03/22 01:37:51;;;;;;;;;3.00;2.00;;;;;15.82;100.00;100889.59;4967238;28;45446;-73
2023/03/22 01:40:16;;;;;;;;;3.33;0.67;;;;;15.77;100.00;100886.56;4967219;28;45699;-74
2023/03/22 01:42:42;;;;;;;;;2.33;2.33;;;;;15.85;100.00;100882.91;4967463;28;45431;-73
2023/03/22 01:45:13;;;;;;;;;7.00;3.00;;;;;15.78;100.00;100881.94;4967413;28;45234;-73
2023/03/22 01:47:42;;;;;;;;;1.33;1.33;;;;;15.82;100.00;100872.31;4966750;28;45470;-73
2023/03/22 01:50:08;;;;;;;;;3.00;2.00;;;;;15.53;100.00;100853.78;4966865;28;45317;-73
2023/03/22 01:52:35;;;;;;;;;2.00;1.00;;;;;15.53;100.00;100867.47;4967202;28;45265;-73
2023/03/22 01:55:00;;;;;;;;;4.00;3.00;;;;;15.48;100.00;100862.50;4967443;28;45309;-71
2023/03/22 01:57:26;;;;;;;;;6.67;2.00;;;;;15.53;100.00;100864.75;4966843;28;45476;-71
2023/03/22 01:59:51;;;;;;;;;1.00;1.00;;;;;15.58;100.00;100860.44;4981860;28;45270;-71
2023/03/22 02:02:20;;;;;;;;;4.00;2.00;;;;;15.49;100.00;100855.13;4966729;28;45403;-71
2023/03/22 02:04:49;;;;;;;;;4.00;1.00;;;;;15.53;100.00;100846.44;4967273;28;45459;-71
2023/03/22 02:07:24;;;;;;;;;2.00;2.00;;;;;15.42;100.00;100841.28;4965215;28;47611;-74
2023/03/22 02:09:50;;;;;;;;;5.00;2.00;;;;;15.52;100.00;100825.50;4966420;28;45278;-74
2023/03/22 02:12:31;;;;;;;;;3.67;1.00;;;;;15.51;100.00;100828.44;4981544;28;45431;-74
2023/03/22 02:15:18;;;;;;;;;5.00;2.00;;;;;15.39;100.00;100833.44;4966990;28;45398;-74
2023/03/22 02:18:10;;;;;;;;;4.00;2.00;;;;;15.42;100.00;100822.13;4966089;28;45493;-74
2023/03/22 02:20:59;;;;;;;;;3.67;2.00;;;;;15.48;100.00;100820.59;4966445;28;45463;-73
2023/03/22 02:23:49;;;;;;;;;2.67;2.67;;;;;15.45;100.00;100815.44;4962192;28;45346;-73
2023/03/22 02:26:42;;;;;;;;;2.00;2.00;;;;;15.48;100.00;100812.38;4966375;28;45352;-73
2023/03/22 02:29:35;;;;;;;;;2.00;2.00;;;;;15.48;100.00;100818.69;4966228;28;45319;-73
2023/03/22 02:32:12;;;;;;;;;5.33;2.33;;;;;15.54;100.00;100826.22;4966113;28;45267;-73
2023/03/22 02:35:09;;;;;;;;;2.67;2.67;;;;;15.52;100.00;100811.81;4965152;28;45333;-73
2023/03/22 02:37:57;;;;;;;;;4.00;1.00;;;;;15.52;100.00;100830.13;4966630;28;45639;-73
2023/03/22 02:40:37;;;;;;;;;4.00;1.00;;;;;15.25;100.00;100798.63;4966103;28;45243;-73
2023/03/22 02:43:37;;;;;;;;;2.67;1.33;;;;;15.36;100.00;100814.63;4966000;28;45471;-73
2023/03/22 02:46:09;;;;;;;;;6.67;3.00;;;;;15.16;100.00;100816.94;4965762;28;45234;-73
2023/03/22 02:48:54;;;;;;;;;2.67;2.67;;;;;15.08;100.00;100818.84;4964600;28;45419;-72
2023/03/22 02:51:24;;;;;;;;;4.00;2.00;;;;;15.25;100.00;100822.38;4964255;28;47617;-73
2023/03/22 02:53:57;;;;;;;;;3.00;3.00;;;;;15.30;100.00;100817.22;4965706;28;45310;-72
2023/03/22 02:56:38;;;;;;;;;4.00;4.00;;;;;15.20;100.00;100829.22;4965715;28;45267;-73
2023/03/22 02:59:07;;;;;;;;;1.00;1.00;;;;;15.20;100.00;100822.91;4966115;28;45309;-73
2023/03/22 03:01:38;;;;;;;;;3.00;2.67;;;;;15.11;100.00;100813.03;4965479;28;45320;-73
2023/03/22 03:04:08;;;;;;;;;2.00;2.00;;;;;15.25;100.00;100825.97;4963792;28;45333;-73
2023/03/22 03:06:44;;;;;;;;;1.00;1.00;;;;;15.26;100.00;100821.38;4980589;28;45356;-72
2023/03/22 03:09:12;;;;;;;;;2.33;2.00;;;;;15.47;100.00;100833.41;4964405;28;45341;-73
2023/03/22 03:11:38;;;;;;;;;3.33;2.33;;;;;15.53;100.00;100830.00;4965155;28;45398;-72
2023/03/22 03:14:03;;;;;;;;;7.00;2.00;;;;;15.42;100.00;100832.22;4965348;28;45340;-72
2023/03/22 03:16:33;;;;;;;;;4.33;2.00;;;;;15.46;100.00;100837.19;4965808;28;45392;-73
2023/03/22 03:19:22;;;;;;;;;4.33;3.00;;;;;15.34;100.00;100800.25;4980810;28;45576;-72
2023/03/22 03:22:01;;;;;;;;;6.33;1.33;;;;;15.44;100.00;100822.81;4965554;28;45464;-72
2023/03/22 03:24:35;;;;;;;;;4.33;2.00;;;;;15.43;100.00;100818.38;4965259;28;45385;-72
2023/03/22 03:27:21;;;;;;;;;2.00;2.00;;;;;15.56;100.00;100812.38;4965608;28;45475;-72
2023/03/22 03:30:00;;;;;;;;;2.33;2.33;;;;;15.32;100.00;100816.03;4964554;28;45486;-72
2023/03/22 03:32:40;;;;;;;;;9.67;7.00;;;;;15.45;100.00;100819.03;4963591;28;48164;-72
2023/03/22 03:35:21;;;;;;;;;2.00;2.00;;;;;15.68;100.00;100816.41;4960017;28;45350;-72
2023/03/22 03:38:00;;;;;;;;;3.00;3.00;;;;;15.74;100.00;100810.19;4953540;28;45306;-72
2023/03/22 03:40:36;;;;;;;;;3.67;3.00;;;;;15.51;100.00;100798.31;4965678;28;45226;-72
2023/03/22 03:43:05;;;;;;;;;1.67;1.67;;;;;15.54;100.00;100815.28;4979533;28;47492;-72
2023/03/22 03:45:31;;;;;;;;;7.67;3.00;;;;;15.55;100.00;100811.50;4979982;28;45321;-72
2023/03/22 03:48:02;;;;;;;;;3.00;1.67;;;;;15.38;100.00;100801.63;4964958;28;45341;-72
2023/03/22 03:50:29;;;;;;;;;5.00;2.00;;;;;15.49;100.00;100805.84;4980358;28;45865;-72
2023/03/22 03:52:55;;;;;;;;;3.00;2.00;;;;;15.59;100.00;100812.00;4965003;28;45448;-72
2023/03/22 03:55:21;;;;;;;;;5.33;4.33;;;;;15.66;100.00;100801.16;4964876;28;45365;-72
2023/03/22 03:57:46;;;;;;;;;1.00;1.00;;;;;15.73;100.00;100796.66;4965306;28;45283;-72
2023/03/22 04:00:13;;;;;;;;;3.00;2.00;;;;;15.62;100.00;100808.06;4964101;28;45254;-71
2023/03/22 04:02:40;;;;;;;;;5.33;2.33;;;;;15.65;100.00;100783.88;4964695;28;45381;-71
2023/03/22 04:05:06;;;;;;;;;2.00;2.00;;;;;15.66;100.00;100807.50;4964695;28;45326;-72
2023/03/22 04:07:32;;;;;;;;;3.00;3.00;;;;;15.60;100.00;100813.69;4964915;28;45261;-71
2023/03/22 04:09:57;;;;;;;;;2.33;2.33;;;;;15.68;100.00;100821.03;4965360;28;45191;-71
2023/03/22 04:12:23;;;;;;;;;3.33;3.00;;;;;15.81;100.00;100805.69;4979648;28;47836;-71
2023/03/22 04:14:48;;;;;;;;;2.33;2.33;;;;;15.73;100.00;100813.09;4964956;28;45238;-71
2023/03/22 04:17:13;;;;;;;;;5.33;2.33;;;;;15.57;100.00;100809.44;4979821;28;45229;-72
2023/03/22 04:19:41;;;;;;;;;1.67;1.67;;;;;15.61;100.00;100793.50;4965315;28;45254;-72
2023/03/22 04:22:06;;;;;;;;;3.00;1.33;;;;;15.57;100.00;100795.72;4963088;28;46227;-72
2023/03/22 04:24:31;;;;;;;;;3.00;2.67;;;;;15.64;100.00;100797.75;4964456;28;45176;-72
2023/03/22 04:26:57;;;;;;;;;1.00;1.00;;;;;15.69;100.00;100795.34;4979727;28;45345;-72
2023/03/22 04:29:23;;;;;;;;;2.67;2.67;;;;;15.72;100.00;100790.34;4965030;28;45590;-71
2023/03/22 04:31:48;;;;;;;;;0.33;0.00;;;;;15.71;100.00;100793.25;4964434;28;45524;-72
2023/03/22 04:34:14;;;;;;;;;2.00;2.00;;;;;15.73;100.00;100782.97;4964043;28;45275;-72
2023/03/22 04:36:39;;;;;;;;;1.00;1.00;;;;;15.63;100.00;100780.50;4979394;28;45478;-71
2023/03/22 04:39:09;;;;;;;;;1.00;1.00;;;;;15.67;100.00;100780.97;4964451;28;45579;-72
2023/03/22 04:41:35;;;;;;;;;2.00;1.00;;;;;15.62;100.00;100791.63;4963094;28;46572;-71
2023/03/22 04:44:02;;;;;;;;;1.00;1.00;;;;;15.79;100.00;100784.97;4962839;28;45272;-73
2023/03/22 04:46:33;;;;;;;;;1.67;1.00;;;;;15.68;100.00;100774.47;4962776;28;45293;-73
2023/03/22 04:48:59;;;;;;;;;5.00;1.67;;;;;15.84;100.00;100783.44;4964280;28;45375;-73
2023/03/22 04:51:25;;;;;;;;;1.00;1.00;;;;;15.60;100.00;100758.06;4978728;28;47506;-73
2023/03/22 04:53:51;;;;;;;;;1.67;1.67;;;;;15.70;100.00;100783.34;4961888;28;45468;-72
2023/03/22 04:56:17;;;;;;;;;1.00;1.00;;;;;15.71;100.00;100774.06;4979158;28;45349;-72
2023/03/22 04:58:44;;;;;;;;;1.00;1.00;;;;;15.82;100.00;100790.13;4964481;28;45315;-73
2023/03/22 05:01:11;;;;;;;;;1.00;1.00;;;;;15.89;100.00;100780.13;4963461;28;46374;-72
2023/03/22 05:03:37;;;;;;;;;3.67;1.33;;;;;15.81;100.00;100777.44;4982954;28;45508;-73
2023/03/22 05:06:06;;;;;;;;;0.00;0.00;;;;;15.54;100.00;100765.97;4957577;28;45294;-73
2023/03/22 05:08:33;;;;;;;;;0.33;0.33;;;;;15.50;100.00;100775.53;4964311;28;45264;-72
2023/03/22 05:11:15;;;;;;;;;1.00;1.00;;;;;15.31;100.00;100755.97;4963628;28;45333;-73
2023/03/22 05:13:40;;;;;;;;;2.00;1.33;;;;;15.39;100.00;100764.16;4962997;28;45278;-73
2023/03/22 05:16:07;;;;;;;;;3.00;2.00;;;;;15.43;100.00;100776.44;4961610;28;45356;-72
2023/03/22 05:18:33;;;;;;;;;3.00;1.00;;;;;15.30;100.00;100773.44;4963875;28;45344;-72
2023/03/22 05:21:02;;;;;;;;;2.67;2.00;;;;;15.38;100.00;100782.47;4978123;28;47445;-74
2023/03/22 05:23:28;;;;;;;;;3.33;3.00;;;;;15.19;100.00;100781.00;4962128;28;45238;-73
2023/03/22 05:25:53;;;;;;;;;3.67;2.00;;;;;14.80;100.00;100767.28;4963195;28;45460;-73
2023/03/22 05:28:21;;;;;;;;;2.00;2.00;;;;;15.27;100.00;100777.38;4962330;28;45595;-73
2023/03/22 05:30:47;;;;;;;;;3.67;3.00;;;;;15.35;100.00;100776.47;4962926;28;45416;-74
2023/03/22 05:33:13;;;;;;;;;4.33;1.33;;;;;15.25;100.00;100773.13;4963185;28;45473;-72
2023/03/22 05:35:40;;;;;;;;;1.00;1.00;;;;;15.26;100.00;100762.00;4977752;28;45307;-72
2023/03/22 05:38:06;;;;;;;;;1.00;1.00;;;;;15.29;100.00;100756.16;4965347;28;45496;-73
2023/03/22 05:40:32;;;;;;;;;5.00;3.00;;;;;15.35;100.00;100777.31;4962003;28;45673;-73
2023/03/22 05:42:58;;;;;;;;;2.33;1.33;;;;;15.28;100.00;100778.22;4960934;28;47228;-73
2023/03/22 05:45:24;;;;;;;;;3.67;2.67;;;;;15.53;100.00;100783.44;4962702;28;45475;-73
2023/03/22 05:47:50;;;;;;;;;4.67;2.33;;;;;15.42;100.00;100782.94;4962842;28;45290;-73
2023/03/22 05:50:18;;;;;;;;;2.33;1.00;;;;;15.47;100.00;100781.41;4961039;28;46073;-73
2023/03/22 05:52:44;;;;;;;;;2.00;2.00;;;;;15.63;100.00;100775.00;4961448;28;45284;-73
2023/03/22 05:55:13;;;;;;;;;3.67;3.00;;;;;15.55;100.00;100767.69;4962951;28;45254;-73
2023/03/22 05:57:40;;;;;;;;;3.00;3.00;;;;;15.62;100.00;100769.72;4963548;28;45310;-73
2023/03/22 06:00:09;;;;;;;;;5.00;3.00;;;;;15.77;100.00;100776.13;4961653;28;48402;-74
2023/03/22 06:02:35;;;;;;;;;1.00;1.00;;;;;15.30;100.00;100770.69;4960637;28;45395;-74
2023/03/22 06:05:01;;;;;;;;;2.00;2.00;;;;;15.53;100.00;100785.31;4963490;28;45244;-74
2023/03/22 06:07:26;;;;;;;;;3.00;1.00;;;;;15.75;100.00;100779.03;4965568;28;45395;-74
2023/03/22 06:09:51;;;;;;;;;4.33;1.67;;;;;15.63;100.00;100757.72;4964904;28;47302;-74
2023/03/22 06:12:17;;;;;;;;;2.00;2.00;;;;;15.73;100.00;100763.81;4966362;28;45461;-73
2023/03/22 06:14:42;;;;;;;;;3.00;3.00;;;;;15.73;100.00;100772.88;4966124;28;45291;-74
2023/03/22 06:17:08;;;;;;;;;3.67;2.33;;;;;15.59;100.00;100762.69;4966473;28;45396;-74
2023/03/22 06:19:33;;;;;;;;;3.33;2.00;;;;;15.79;100.00;100755.69;4964197;28;47147;-73
2023/03/22 06:21:59;;;;;;;;;3.00;3.00;;;;;15.85;100.00;100756.88;4964560;28;45182;-73
2023/03/22 06:24:24;;;;;;;;;3.00;2.00;;;;;15.83;100.00;100758.94;4963852;28;45453;-74
2023/03/22 06:26:50;;;;;;;;;4.00;2.67;;;;;15.92;100.00;100774.31;4966394;28;45243;-74
2023/03/22 06:29:15;;;;;;;;;5.00;4.00;;;;;15.84;100.00;100763.41;4996419;28;47834;-74
2023/03/22 06:31:41;;;;;;;;;5.00;3.00;;;;;15.81;100.00;100775.56;4965668;28;45350;-74
2023/03/22 06:34:06;;;;;;;;;4.33;3.00;;;;;15.74;100.00;100776.47;4964846;28;45230;-74
2023/03/22 06:36:31;;;;;;;;;2.00;2.00;;;;;15.99;100.00;100788.97;4965388;28;45241;-74
2023/03/22 06:38:59;;;;;;;;;6.00;4.67;;;;;16.00;100.00;100790.66;4963703;28;47286;-74
2023/03/22 06:41:25;;;;;;;;;9.33;5.00;;;;;15.88;100.00;100790.25;4963204;28;45325;-74
2023/03/22 06:43:50;;;;;;;;;3.50;3.50;;;;;15.98;100.00;100795.50;4965439;28;45524;-75
2023/03/22 06:46:15;;;;;;;;;4.00;3.00;;;;;16.09;100.00;100800.53;4963812;28;45561;-74
2023/03/22 06:48:41;;;;;;;;;5.00;3.67;;;;;16.11;100.00;100811.31;4962879;28;47052;-73
2023/03/22 06:51:06;;;;;;;;;6.00;4.00;;;;;16.12;100.00;100802.91;4963277;28;45346;-72
2023/03/22 06:53:32;;;;;;;;;6.33;4.00;;;;;15.99;100.00;100821.88;4964926;28;45277;-75
2023/03/22 06:55:58;;;;;;;;;4.00;4.00;;;;;16.13;100.00;100804.63;4965285;28;45599;-74
2023/03/22 06:58:23;;;;;;;;;11.00;5.00;;;;;16.18;100.00;100817.78;4964741;28;46338;-74
2023/03/22 07:00:48;;;;;;;;;7.00;4.67;;;;;16.38;100.00;100824.47;4965145;28;45163;-72
2023/03/22 07:03:14;;;;;;;;;5.00;5.00;;;;;16.20;100.00;100812.97;4964529;28;45364;-75
2023/03/22 07:05:39;;;;;;;;;4.00;3.33;;;;;16.27;100.00;100813.94;4980328;28;45403;-73
2023/03/22 07:08:05;;;;;;;;;6.33;4.00;;;;;16.29;100.00;100825.59;4962863;28;46629;-74
2023/03/22 07:10:30;;;;;;;;;8.67;5.33;;;;;16.13;100.00;100814.75;4965334;28;45214;-74
2023/03/22 07:12:56;;;;;;;;;5.33;4.00;;;;;16.27;100.00;100812.06;4964964;28;45204;-75
2023/03/22 07:15:23;;;;;;;;;9.67;6.00;;;;;16.06;100.00;100806.41;4965229;28;45238;-74
2023/03/22 07:17:50;;;;;;;;;5.00;3.33;;;;;16.20;100.00;100826.69;4963170;28;45347;-73
2023/03/22 07:20:16;;;;;;;;;9.33;5.67;;;;;16.14;100.00;100821.94;4962537;28;45408;-74
2023/03/22 07:22:41;;;;;;;;;6.33;5.00;;;;;16.20;100.00;100816.56;4979065;28;45418;-74
2023/03/22 07:25:07;;;;;;;;;4.67;4.00;;;;;16.29;100.00;100820.91;4962634;28;45353;-74
2023/03/22 07:27:32;;;;;;;;;2.67;1.00;;;;;16.03;100.00;100819.59;4964397;28;46314;-75
2023/03/22 07:29:58;;;;;;;;;4.00;4.00;;;;;16.38;100.00;100823.59;4964520;28;45381;-74
2023/03/22 07:32:23;;;;;;;;;3.67;3.67;;;;;16.42;100.00;100806.63;4963870;28;46426;-75
2023/03/22 07:34:48;;;;;;;;;5.67;4.33;;;;;16.32;100.00;100820.56;4964626;28;45420;-73
2023/03/22 07:37:14;;;;;;;;;4.00;4.00;;;;;16.21;100.00;100818.28;4963625;28;46085;-74
2023/03/22 07:39:39;;;;;;;;;4.33;4.33;;;;;16.52;100.00;100815.41;4963320;28;45382;-74
2023/03/22 07:42:05;;;;;;;;;8.00;6.00;;;;;16.73;100.00;100831.19;4964216;28;45221;-74
2023/03/22 07:44:30;;;;;;;;;5.00;5.00;;;;;16.64;100.00;100819.47;4964690;28;45607;-74
2023/03/22 07:46:56;;;;;;;;;8.67;4.67;;;;;16.63;100.00;100830.63;4978267;28;47175;-74
2023/03/22 07:49:21;;;;;;;;;5.33;5.00;;;;;16.43;100.00;100829.41;4963259;28;45257;-73
2023/03/22 07:51:46;;;;;;;;;5.33;4.67;;;;;16.70;100.00;100829.69;4963917;28;45309;-75
2023/03/22 07:54:11;;;;;;;;;11.67;4.33;;;;;16.72;100.00;100822.16;4964295;28;45692;-75
2023/03/22 07:56:38;;;;;;;;;4.00;3.00;;;;;16.80;100.00;100834.94;4978129;28;48829;-74
2023/03/22 07:59:03;;;;;;;;;3.00;3.00;;;;;16.77;100.00;100832.53;4963217;28;45385;-74
2023/03/22 08:01:29;;;;;;;;;4.33;3.67;;;;;16.41;100.00;100823.25;4962839;28;45381;-75
2023/03/22 08:03:54;;;;;;;;;5.00;5.00;;;;;16.58;100.00;100824.81;4961907;28;45350;-74
2023/03/22 08:06:20;;;;;;;;;3.33;3.00;;;;;16.64;100.00;100819.47;4963629;28;45438;-74
2023/03/22 08:08:46;;;;;;;;;5.00;3.00;;;;;16.66;100.00;100822.84;4961963;28;45341;-75
2023/03/22 08:11:11;;;;;;;;;4.67;4.67;;;;;16.67;100.00;100812.75;4963363;28;45357;-73
2023/03/22 08:13:37;;;;;;;;;8.67;6.00;;;;;16.73;100.00;100831.19;4963646;28;45545;-73
2023/03/22 08:16:04;;;;;;;;;9.67;6.00;;;;;16.71;100.00;100814.94;4962724;28;45744;-75
2023/03/22 08:18:30;;;;;;;;;4.33;4.33;;;;;16.77;100.00;100832.53;4993482;28;45930;-74
2023/03/22 08:20:57;;;;;;;;;5.67;4.00;;;;;16.79;100.00;100833.22;4963411;28;45183;-74
2023/03/22 08:23:24;;;;;;;;;7.00;5.00;;;;;16.92;100.00;100832.56;4964700;28;45402;-73
2023/03/22 08:25:50;;;;;;;;;5.00;5.00;;;;;16.87;100.00;100838.63;4961766;28;46801;-76
2023/03/22 08:28:16;;;;;;;;;8.00;5.00;;;;;17.02;100.00;100849.63;4963583;28;45382;-74
2023/03/22 08:30:43;;;;;;;;;7.67;6.00;;;;;16.85;100.00;100835.22;4963874;28;45329;-75
2023/03/22 08:33:08;;;;;;;;;5.33;4.67;;;;;16.80;100.00;100840.41;4962161;28;45507;-74
2023/03/22 08:35:34;;;;;;;;;4.00;4.00;;;;;16.91;100.00;100842.69;4963151;28;46734;-74
2023/03/22 08:38:00;;;;;;;;;6.67;5.00;;;;;16.93;100.00;100829.63;4962118;28;45261;-74
2023/03/22 08:40:25;;;;;;;;;5.00;5.00;;;;;16.93;100.00;100817.81;4978391;28;45257;-74
2023/03/22 08:42:50;;;;;;;;;6.00;5.00;;;;;16.58;100.00;100841.28;4962141;28;45720;-74
2023/03/22 08:45:16;;;;;;;;;5.00;5.00;;;;;16.73;100.00;100833.94;4961784;28;51555;-75
2023/03/22 08:47:43;;;;;;;;;5.00;4.00;;;;;16.44;100.00;100833.88;4962856;28;45294;-73
2023/03/22 08:50:10;;;;;;;;;8.00;5.00;;;;;16.47;100.00;100817.03;4963129;28;45278;-74
2023/03/22 08:52:35;;;;;;;;;6.00;6.00;;;;;16.53;100.00;100833.59;4964022;28;45328;-73
2023/03/22 08:55:02;;;;;;;;;8.33;6.00;;;;;16.79;100.00;100844.19;4977850;28;47814;-74
2023/03/22 08:57:28;;;;;;;;;4.33;4.33;;;;;16.64;100.00;100813.13;4978056;28;45333;-72
2023/03/22 08:59:55;;;;;;;;;2.00;2.00;;;;;16.54;100.00;100832.56;4962507;28;45236;-74
2023/03/22 09:02:21;;;;;;;;;7.67;6.00;;;;;16.43;100.00;100830.25;4963718;28;45480;-74
2023/03/22 09:04:46;;;;;;;;;7.00;6.00;;;;;16.50;100.00;100828.50;4962513;28;45660;-74
2023/03/22 09:07:12;;;;;;;;;8.00;6.00;;;;;16.47;100.00;100806.91;4960932;28;45758;-75
2023/03/22 09:09:37;;;;;;;;;10.33;6.00;;;;;16.48;100.00;100821.47;4962369;28;45819;-74
2023/03/22 09:12:02;;;;;;;;;6.33;4.67;;;;;16.70;100.00;100813.25;4962728;28;45449;-74
2023/03/22 09:14:28;;;;;;;;;8.67;7.00;;;;;16.61;100.00;100803.38;4961720;28;46318;-73
2023/03/22 09:16:53;;;;;;;;;7.00;7.00;;;;;16.67;100.00;100810.00;4962104;28;45372;-75
2023/03/22 09:19:18;;;;;;;;;6.67;5.00;;;;;16.63;100.00;100816.91;4962816;28;45451;-73
2023/03/22 09:21:44;;;;;;;;;7.00;6.33;;;;;16.65;100.00;100803.88;4961299;28;45511;-74
2023/03/22 09:24:10;;;;;;;;;5.00;4.00;;;;;16.68;100.00;100826.28;4963073;28;46077;-73
2023/03/22 09:26:35;;;;;;;;;9.33;6.00;;;;;16.76;100.00;100830.84;4963025;28;45377;-75
2023/03/22 09:29:01;;;;;;;;;6.00;5.33;;;;;16.76;100.00;100822.59;4945395;28;45390;-75
2023/03/22 09:31:27;;;;;;;;;9.00;6.67;;;;;16.79;100.00;100807.66;4963577;28;45395;-74
2023/03/22 09:33:52;;;;;;;;;4.00;4.00;;;;;16.78;100.00;100812.31;4977395;28;46586;-75
2023/03/22 09:36:18;;;;;;;;;7.67;6.67;;;;;16.57;100.00;100809.41;4962017;28;45668;-75
2023/03/22 09:38:45;;;;;;;;;10.67;5.33;;;;;16.54;100.00;100796.91;4963417;28;45158;-74
2023/03/22 09:41:10;;;;;;;;;11.33;6.00;;;;;16.61;100.00;100803.38;4964272;28;45634;-74
2023/03/22 09:43:41;;;;;;;;;5.00;5.00;;;;;16.46;100.00;100807.94;4966546;28;46604;-74
2023/03/22 09:46:13;;;;;;;;;6.33;5.67;;;;;16.57;100.00;100792.94;4966466;28;45339;-74
2023/03/22 09:48:41;;;;;;;;;8.00;6.33;;;;;16.87;100.00;100802.09;4964577;28;45385;-75
2023/03/22 09:51:22;;;;;;;;;10.25;10.25;;;;;16.97;100.00;100797.16;4965383;28;45512;-77
2023/03/22 09:53:48;;;;;;;;;9.33;7.00;;;;;17.10;100.00;100791.84;4965898;28;47478;-77
2023/03/22 09:56:24;;;;;;;;;9.00;6.00;;;;;17.00;100.00;100780.34;4966588;28;45467;-75
2023/03/22 09:59:21;;;;;;;;;5.00;5.00;;;;;16.94;100.00;100787.44;4965433;28;45392;-75
2023/03/22 10:01:58;;;;;;;;;6.00;6.00;;;;;16.68;100.00;100773.28;4966990;28;45277;-78
2023/03/22 10:04:57;;;;;;;;;7.00;5.00;;;;;16.52;100.00;100770.69;4964783;28;47114;-77
2023/03/22 10:07:35;;;;;;;;;7.00;6.00;;;;;17.00;100.00;100769.34;4966100;28;45364;-76
2023/03/22 10:10:19;;;;;;;;;10.67;6.67;;;;;16.86;100.00;100760.09;4966403;28;45304;-75
2023/03/22 10:13:06;;;;;;;;;3.00;3.00;;;;;16.86;100.00;100782.03;4965151;28;45455;-75
2023/03/22 10:15:39;;;;;;;;;7.00;7.00;;;;;16.89;100.00;100770.66;4966632;28;45509;-75
2023/03/22 10:18:10;;;;;;;;;6.33;6.00;;;;;17.00;100.00;100775.69;4971769;28;45356;-74
2023/03/22 10:21:04;;;;;;;;;6.67;6.00;;;;;17.07;100.00;100782.13;4968506;28;45368;-74
2023/03/22 10:23:38;;;;;;;;;7.67;5.00;;;;;16.98;100.00;100772.28;4969046;28;45363;-76
2023/03/22 10:26:05;;;;;;;;;13.67;9.00;;;;;17.10;100.00;100759.78;4978697;28;47833;-76
2023/03/22 10:28:37;;;;;;;;;4.33;2.00;;;;;17.07;100.00;100742.84;4976031;28;45277;-76
2023/03/22 10:31:03;;;;;;;;;9.67;7.33;;;;;17.14;100.00;100749.28;4970203;28;45534;-76
2023/03/22 10:33:49;;;;;;;;;36.50;30.75;;;;;17.41;100.00;100755.94;4973441;28;45483;-76
2023/03/22 10:36:15;;;;;;;;;10.33;8.00;;;;;17.50;100.00;100741.06;4976910;28;47340;-74
2023/03/22 10:38:48;;;;;;;;;10.33;8.67;;;;;17.52;100.00;100737.09;4970581;28;45491;-76
2023/03/22 10:41:17;;;;;;;;;7.33;6.33;;;;;17.29;100.00;100752.00;4963755;28;45228;-76
2023/03/22 10:43:44;;;;;;;;;8.33;5.67;;;;;17.17;100.00;100753.53;4979887;28;45285;-75
2023/03/22 10:46:18;;;;;;;;;3.33;3.33;;;;;17.25;100.00;100746.03;5005406;28;48310;-76
2023/03/22 10:48:46;;;;;;;;;6.33;6.33;;;;;17.24;100.00;100754.47;4978744;28;45447;-75
2023/03/22 10:51:19;;;;;;;;;7.33;7.00;;;;;17.38;100.00;100742.63;4977790;28;45429;-77
2023/03/22 10:53:48;;;;;;;;;11.33;9.00;;;;;17.63;100.00;100744.00;4976385;28;45505;-75
2023/03/22 10:56:18;;;;;;;;;8.67;7.67;;;;;17.62;100.00;100733.19;4973739;28;46979;-75
2023/03/22 10:58:45;;;;;;;;;6.67;6.67;;;;;17.81;100.00;100747.16;5005616;28;45853;-75
2023/03/22 11:01:13;;;;;;;;;9.33;6.33;;;;;17.96;100.00;100743.50;5005540;28;45707;-75
2023/03/22 11:03:47;;;;;;;;;13.67;10.67;;;;;18.14;100.00;100730.13;4979236;28;45532;-76
2023/03/22 11:06:24;;;;;;;;;11.00;9.67;;;;;18.17;100.00;100724.22;4964528;28;45248;-75
2023/03/22 11:08:52;;;;;;;;;8.00;6.33;;;;;18.13;100.00;100726.50;4961402;28;45414;-75
2023/03/22 11:11:24;;;;;;;;;16.33;10.67;;;;;18.28;100.00;100707.19;4976469;28;45400;-75
2023/03/22 11:13:54;;;;;;;;;9.00;7.67;;;;;18.40;100.00;100715.75;4972802;28;45464;-74
2023/03/22 11:16:20;;;;;;;;;7.33;5.67;;;;;18.12;100.00;100724.81;4970529;28;45414;-75
2023/03/22 11:18:46;;;;;;;;;7.67;7.67;;;;;18.16;100.00;100725.28;4974032;28;45337;-75
2023/03/22 11:21:15;;;;;;;;;7.67;7.00;;;;;18.48;100.00;100719.19;4979379;28;45487;-74
2023/03/22 11:23:51;;;;;;;;;10.00;9.67;;;;;18.78;100.00;100722.59;4971649;28;45325;-76